ICR weather

Nicaro Airport
Nicaro, HolguĂ­n, Cuba

Public forecast

Using degrees Celsius for public forecast. Weather courtesy of forecast.io.

Closest aviation weather report (METAR) to Nicaro Airport

Report is more than 6 hours old.

Closest report is Orestes Acosta Airport, 34.3 nm (63.5 km) E. Retrieved 2018/08/13 17:50 UTC (1 year ago):

MUMO 131750Z 10014KT 060V140 9000 SCT020 31/22 Q1017

Closest aviation forecast (TAF) to Nicaro Airport

Forecast is more than 12 hours old.

Closest forecast is Mariana Grajales Airport, 41.9 nm (77.5 km) SSE. Retrieved 2009/09/04 04:30 UTC (10 years ago):

TAF MUGT 040430Z 0410/0424 VRB02KT 9000 SCT020 BECMG 0414/0416 16010KT